Time,TemperatureF,DewpointF,PressureIn,WindDirection,WindDirectionDegrees,WindSpeedMPH,WindSpeedGustMPH,Humidity,HourlyPrecipIn,Conditions,Clouds,dailyrainin,SolarRadiationWatts/m^2,SoftwareType,DateUTC
2013-09-08 00:02:00,57.0,57.0,-100.00,SSE,165,1.0,2.0,99,0.00,,,0.00,0.000000,,2013-09-08 08:02:00,
2013-09-08 00:11:00,57.0,57.0,-100.00,SSE,165,1.0,2.0,99,0.00,,,0.00,0.000000,,2013-09-08 08:11:00,
2013-09-08 00:22:00,57.0,57.0,-100.00,SSE,165,1.0,2.0,99,0.00,,,0.00,0.000000,,2013-09-08 08:22:00,
2013-09-08 00:52:00,55.0,55.0,-100.00,SSE,166,1.0,3.0,99,0.00,,,0.00,0.000000,,2013-09-08 08:52:00,
2013-09-08 01:02:00,55.0,55.0,-100.00,SSE,166,1.0,3.0,99,0.00,,,0.00,0.000000,,2013-09-08 09:02:00,
2013-09-08 01:11:00,55.0,55.0,-100.00,SSE,166,1.0,3.0,99,0.00,,,0.00,0.000000,,2013-09-08 09:11:00,
2013-09-08 01:22:00,55.0,55.0,-100.00,SSE,166,1.0,3.0,99,0.00,,,0.00,0.000000,,2013-09-08 09:22:00,
2013-09-08 01:54:00,57.0,57.0,-100.00,SW,233,0.0,1.0,100,0.00,,,0.00,0.000000,,2013-09-08 09:54:00,
2013-09-08 02:03:00,57.0,57.0,-100.00,SW,233,0.0,1.0,100,0.00,,,0.00,0.000000,,2013-09-08 10:03:00,
2013-09-08 02:12:00,57.0,57.0,-100.00,SW,233,0.0,1.0,100,0.00,,,0.00,0.000000,,2013-09-08 10:12:00,
2013-09-08 02:23:00,57.0,57.0,-100.00,SW,233,0.0,1.0,100,0.00,,,0.00,0.000000,,2013-09-08 10:23:00,
2013-09-08 02:53:00,55.0,55.0,-100.00,SSW,201,0.0,3.0,100,0.00,,,0.00,0.000000,,2013-09-08 10:53:00,
2013-09-08 03:02:00,55.0,55.0,-100.00,SSW,201,0.0,3.0,100,0.00,,,0.00,0.000000,,2013-09-08 11:02:00,
2013-09-08 03:12:00,55.0,55.0,-100.00,SSW,201,0.0,3.0,100,0.00,,,0.00,0.000000,,2013-09-08 11:12:00,
2013-09-08 03:21:00,55.0,55.0,-100.00,SSW,201,0.0,3.0,100,0.00,,,0.00,0.000000,,2013-09-08 11:21:00,
2013-09-08 03:52:00,55.0,55.0,-100.00,SSE,158,1.0,4.0,100,0.00,,,0.00,0.000000,,2013-09-08 11:52:00,
2013-09-08 04:02:00,55.0,55.0,-100.00,SSE,158,1.0,4.0,100,0.00,,,0.00,0.000000,,2013-09-08 12:02:00,
2013-09-08 04:12:00,55.0,55.0,-100.00,SSE,158,1.0,4.0,100,0.00,,,0.00,0.000000,,2013-09-08 12:12:00,
2013-09-08 04:21:00,55.0,55.0,-100.00,SSE,158,1.0,4.0,100,0.00,,,0.00,0.000000,,2013-09-08 12:21:00,
2013-09-08 04:52:00,57.0,51.0,-100.00,NNW,346,2.0,6.0,81,0.00,,,0.00,0.000000,,2013-09-08 12:52:00,
2013-09-08 05:01:00,57.0,51.0,-100.00,NNW,346,2.0,6.0,81,0.00,,,0.00,0.000000,,2013-09-08 13:01:00,
2013-09-08 05:11:00,57.0,51.0,-100.00,NNW,346,2.0,6.0,81,0.00,,,0.00,0.000000,,2013-09-08 13:11:00,
2013-09-08 05:22:00,57.0,51.0,-100.00,NNW,346,2.0,6.0,81,0.00,,,0.00,0.000000,,2013-09-08 13:22:00,
2013-09-08 05:52:00,59.0,51.0,-100.00,NNW,330,2.0,8.0,74,0.00,,,0.00,0.000000,,2013-09-08 13:52:00,
2013-09-08 06:02:00,59.0,51.0,-100.00,NNW,330,2.0,8.0,74,0.00,,,0.00,0.000000,,2013-09-08 14:02:00,
2013-09-08 06:11:00,59.0,51.0,-100.00,NNW,330,2.0,8.0,74,0.00,,,0.00,0.000000,,2013-09-08 14:11:00,
2013-09-08 06:22:00,59.0,51.0,-100.00,NNW,330,2.0,8.0,74,0.00,,,0.00,0.000000,,2013-09-08 14:22:00,
2013-09-08 06:52:00,57.0,49.0,-100.00,NNW,340,1.0,5.0,73,0.00,,,0.00,0.000000,,2013-09-08 14:52:00,
2013-09-08 07:02:00,57.0,49.0,-100.00,NNW,340,1.0,5.0,73,0.00,,,0.00,0.000000,,2013-09-08 15:02:00,
2013-09-08 07:12:00,57.0,49.0,-100.00,NNW,340,1.0,5.0,73,0.00,,,0.00,0.000000,,2013-09-08 15:12:00,
2013-09-08 07:22:00,57.0,49.0,-100.00,NNW,340,1.0,5.0,73,0.00,,,0.00,0.000000,,2013-09-08 15:22:00,
2013-09-08 07:54:00,57.0,47.0,-100.00,NW,306,2.0,5.0,70,0.00,,,0.00,10.000000,,2013-09-08 15:54:00,
2013-09-08 08:04:00,57.0,47.0,-100.00,NW,306,2.0,5.0,70,0.00,,,0.00,10.000000,,2013-09-08 16:04:00,
2013-09-08 08:14:00,57.0,47.0,-100.00,NW,306,2.0,5.0,70,0.00,,,0.00,10.000000,,2013-09-08 16:14:00,
2013-09-08 08:23:00,57.0,47.0,-100.00,NW,306,2.0,5.0,70,0.00,,,0.00,10.000000,,2013-09-08 16:23:00,
2013-09-08 08:53:00,57.0,47.0,-100.00,WNW,298,2.0,6.0,70,0.00,,,0.00,40.000000,,2013-09-08 16:53:00,
2013-09-08 09:03:00,57.0,47.0,-100.00,WNW,298,2.0,6.0,70,0.00,,,0.00,40.000000,,2013-09-08 17:03:00,
2013-09-08 09:12:00,57.0,47.0,-100.00,WNW,298,2.0,6.0,70,0.00,,,0.00,40.000000,,2013-09-08 17:12:00,
2013-09-08 09:23:00,57.0,47.0,-100.00,WNW,298,2.0,6.0,70,0.00,,,0.00,40.000000,,2013-09-08 17:23:00,
2013-09-08 09:53:00,57.0,47.0,-100.00,NW,305,3.0,6.0,69,0.00,,,0.00,95.000000,,2013-09-08 17:53:00,
2013-09-08 10:02:00,57.0,47.0,-100.00,NW,305,3.0,6.0,69,0.00,,,0.00,95.000000,,2013-09-08 18:02:00,
2013-09-08 10:13:00,57.0,47.0,-100.00,NW,305,3.0,6.0,69,0.00,,,0.00,95.000000,,2013-09-08 18:13:00,
2013-09-08 10:21:00,57.0,47.0,-100.00,NW,305,3.0,6.0,69,0.00,,,0.00,95.000000,,2013-09-08 18:21:00,
2013-09-08 10:52:00,57.0,46.0,-100.00,NW,304,3.0,9.0,66,0.00,,,0.00,128.000000,,2013-09-08 18:52:00,
2013-09-08 11:01:00,57.0,46.0,-100.00,NW,304,3.0,9.0,66,0.00,,,0.00,128.000000,,2013-09-08 19:01:00,
2013-09-08 11:12:00,57.0,46.0,-100.00,NW,304,3.0,9.0,66,0.00,,,0.00,128.000000,,2013-09-08 19:12:00,
2013-09-08 11:21:00,57.0,46.0,-100.00,NW,304,3.0,9.0,66,0.00,,,0.00,128.000000,,2013-09-08 19:21:00,
2013-09-08 11:52:00,57.0,47.0,-100.00,WNW,298,3.0,6.0,68,0.00,,,0.00,106.000000,,2013-09-08 19:52:00,
2013-09-08 12:03:00,57.0,47.0,-100.00,WNW,298,3.0,6.0,68,0.00,,,0.00,106.000000,,2013-09-08 20:03:00,
2013-09-08 12:11:00,57.0,47.0,-100.00,WNW,298,3.0,6.0,68,0.00,,,0.00,106.000000,,2013-09-08 20:11:00,
2013-09-08 12:22:00,57.0,47.0,-100.00,WNW,298,3.0,6.0,68,0.00,,,0.00,106.000000,,2013-09-08 20:22:00,
2013-09-08 12:53:00,57.0,46.0,-100.00,NW,320,2.0,7.0,66,0.00,,,0.00,90.000000,,2013-09-08 20:53:00,
2013-09-08 13:02:00,57.0,46.0,-100.00,NW,320,2.0,7.0,66,0.00,,,0.00,90.000000,,2013-09-08 21:02:00,
2013-09-08 13:12:00,57.0,46.0,-100.00,NW,320,2.0,7.0,66,0.00,,,0.00,90.000000,,2013-09-08 21:12:00,
2013-09-08 13:21:00,57.0,46.0,-100.00,NW,320,2.0,7.0,66,0.00,,,0.00,90.000000,,2013-09-08 21:21:00,
2013-09-08 13:24:00,57.0,46.0,-100.00,NNW,348,2.0,5.0,65,0.01,,,0.01,150.000000,,2013-09-08 21:24:00,
2013-09-08 13:54:00,57.0,46.0,-100.00,NNW,348,2.0,5.0,65,0.01,,,0.01,150.000000,,2013-09-08 21:54:00,
2013-09-08 14:04:00,57.0,46.0,-100.00,NNW,348,2.0,5.0,65,0.01,,,0.01,150.000000,,2013-09-08 22:04:00,
2013-09-08 14:13:00,57.0,46.0,-100.00,NNW,348,2.0,5.0,65,0.01,,,0.01,150.000000,,2013-09-08 22:13:00,
2013-09-08 14:53:00,57.0,47.0,-100.00,NW,317,2.0,5.0,69,0.04,,,0.05,145.000000,,2013-09-08 22:53:00,
2013-09-08 15:04:00,57.0,47.0,-100.00,NW,317,2.0,5.0,69,0.04,,,0.05,145.000000,,2013-09-08 23:04:00,
2013-09-08 15:12:00,57.0,47.0,-100.00,NW,317,2.0,5.0,69,0.04,,,0.05,145.000000,,2013-09-08 23:12:00,
2013-09-08 15:22:00,57.0,47.0,-100.00,NW,317,2.0,5.0,69,0.04,,,0.05,145.000000,,2013-09-08 23:22:00,
2013-09-08 15:52:00,55.0,47.0,-100.00,NW,321,2.0,5.0,74,-99.99,,,0.00,140.000000,,2013-09-08 23:52:00,
2013-09-08 16:02:00,55.0,47.0,-100.00,NW,321,2.0,5.0,74,-99.99,,,0.00,140.000000,,2013-09-09 00:02:00,
2013-09-08 16:11:00,55.0,47.0,-100.00,NW,321,2.0,5.0,74,-99.99,,,0.00,140.000000,,2013-09-09 00:11:00,
2013-09-08 16:21:00,55.0,47.0,-100.00,NW,321,2.0,5.0,74,-99.99,,,0.00,140.000000,,2013-09-09 00:21:00,
2013-09-08 16:52:00,57.0,47.0,-100.00,NNW,332,2.0,5.0,68,0.01,,,0.01,163.000000,,2013-09-09 00:52:00,
2013-09-08 17:01:00,57.0,47.0,-100.00,NNW,332,2.0,5.0,68,0.01,,,0.01,163.000000,,2013-09-09 01:01:00,
2013-09-08 17:12:00,57.0,47.0,-100.00,NNW,332,2.0,5.0,68,0.01,,,0.01,163.000000,,2013-09-09 01:12:00,
2013-09-08 17:21:00,57.0,47.0,-100.00,NNW,332,2.0,5.0,68,0.01,,,0.01,163.000000,,2013-09-09 01:21:00,
2013-09-08 17:52:00,59.0,48.0,-100.00,NW,323,4.0,8.0,67,0.01,,,0.02,115.000000,,2013-09-09 01:52:00,
2013-09-08 18:02:00,59.0,48.0,-100.00,NW,323,4.0,8.0,67,0.01,,,0.02,115.000000,,2013-09-09 02:02:00,
2013-09-08 18:11:00,59.0,48.0,-100.00,NW,323,4.0,8.0,67,0.01,,,0.02,115.000000,,2013-09-09 02:11:00,
2013-09-08 18:21:00,59.0,48.0,-100.00,NW,323,4.0,8.0,67,0.01,,,0.02,115.000000,,2013-09-09 02:21:00,
2013-09-08 18:53:00,57.0,45.0,-100.00,NW,323,3.0,7.0,63,0.03,,,0.05,71.000000,,2013-09-09 02:53:00,
2013-09-08 19:02:00,57.0,45.0,-100.00,NW,323,3.0,7.0,63,0.03,,,0.05,71.000000,,2013-09-09 03:02:00,
2013-09-08 19:12:00,57.0,45.0,-100.00,NW,323,3.0,7.0,63,0.03,,,0.05,71.000000,,2013-09-09 03:12:00,
2013-09-08 19:21:00,57.0,45.0,-100.00,NW,323,3.0,7.0,63,0.03,,,0.05,71.000000,,2013-09-09 03:21:00,
2013-09-08 19:24:00,57.0,46.0,-100.00,NNW,327,2.0,7.0,65,-99.99,,,0.00,32.000000,,2013-09-09 03:24:00,
2013-09-08 19:55:00,57.0,46.0,-100.00,NNW,327,2.0,7.0,65,-99.99,,,0.00,32.000000,,2013-09-09 03:55:00,
2013-09-08 20:03:00,57.0,46.0,-100.00,NNW,327,2.0,7.0,65,-99.99,,,0.00,32.000000,,2013-09-09 04:03:00,
2013-09-08 20:14:00,57.0,46.0,-100.00,NNW,327,2.0,7.0,65,-99.99,,,0.00,32.000000,,2013-09-09 04:14:00,
2013-09-08 20:54:00,55.0,44.0,-100.00,NW,323,2.0,7.0,66,-99.99,,,0.00,4.000000,,2013-09-09 04:54:00,
2013-09-08 21:03:00,55.0,44.0,-100.00,NW,323,2.0,7.0,66,-99.99,,,0.00,4.000000,,2013-09-09 05:03:00,
2013-09-08 21:13:00,55.0,44.0,-100.00,NW,323,2.0,7.0,66,-99.99,,,0.00,4.000000,,2013-09-09 05:13:00,
2013-09-08 21:23:00,55.0,44.0,-100.00,NW,323,2.0,7.0,66,-99.99,,,0.00,4.000000,,2013-09-09 05:23:00,
2013-09-08 21:53:00,55.0,44.0,-100.00,NW,326,2.0,6.0,65,0.01,,,0.01,0.000000,,2013-09-09 05:53:00,
2013-09-08 22:02:00,55.0,44.0,-100.00,NW,326,2.0,6.0,65,0.01,,,0.01,0.000000,,2013-09-09 06:02:00,
2013-09-08 22:12:00,55.0,44.0,-100.00,NW,326,2.0,6.0,65,0.01,,,0.01,0.000000,,2013-09-09 06:12:00,
2013-09-08 22:21:00,55.0,44.0,-100.00,NW,326,2.0,6.0,65,0.01,,,0.01,0.000000,,2013-09-09 06:21:00,
2013-09-08 22:52:00,57.0,44.0,-100.00,NW,313,3.0,11.0,62,-99.99,,,0.00,0.000000,,2013-09-09 06:52:00,
2013-09-08 23:01:00,57.0,44.0,-100.00,NW,313,3.0,11.0,62,-99.99,,,0.00,0.000000,,2013-09-09 07:01:00,
2013-09-08 23:11:00,57.0,44.0,-100.00,NW,313,3.0,11.0,62,-99.99,,,0.00,0.000000,,2013-09-09 07:11:00,
2013-09-08 23:21:00,57.0,44.0,-100.00,NW,313,3.0,11.0,62,-99.99,,,0.00,0.000000,,2013-09-09 07:21:00,
2013-09-08 23:52:00,55.0,43.0,-100.00,NW,324,2.0,6.0,64,0.00,,,0.00,0.000000,,2013-09-09 07:52:00,